Valparaiso, Brazil
Current Conditions -  °F | °C
As of 3:00 PM on Tuesday 21 Oct 2014 (Local Time) from SBDN Reporting Station
Clear Clear  
Wind Chill: 86°   Ceiling: Unl
Heat Index: 86°   Visibility: 6mi
Dew Point: 54°   Wind: 10mph
Humidity: 33%   Direction: 120°ESE
Pressure: 30"   Gusts: NA
Location:  21.23°S, 50.87°W
Report Text: SBDN 211700Z 12009KT CAVOK 30/12 Q1016
Loading
Personal Weather Stations






























Interactive Weather Map
Tropical Storm Tracking
New forecast layout! Learn more

10-Day Weather Forecast

Advertisements
Track Severe Weather on mobile